sensor_id;sensor_type;location;lat;lon;timestamp;P1;durP1;ratioP1;P2;durP2;ratioP2
21999;SDS011;11164;48.818;2.322;2023-02-19T00:01:11;5.97;;;2.97;;
21999;SDS011;11164;48.818;2.322;2023-02-19T00:03:40;7.40;;;3.33;;
21999;SDS011;11164;48.818;2.322;2023-02-19T00:06:08;7.25;;;2.90;;
21999;SDS011;11164;48.818;2.322;2023-02-19T00:08:35;7.22;;;3.00;;
21999;SDS011;11164;48.818;2.322;2023-02-19T00:11:05;5.75;;;2.60;;
21999;SDS011;11164;48.818;2.322;2023-02-19T00:13:36;6.28;;;2.95;;
21999;SDS011;11164;48.818;2.322;2023-02-19T00:16:07;6.93;;;3.40;;
21999;SDS011;11164;48.818;2.322;2023-02-19T00:18:33;6.25;;;3.35;;
21999;SDS011;11164;48.818;2.322;2023-02-19T00:20:59;5.57;;;3.13;;
21999;SDS011;11164;48.818;2.322;2023-02-19T00:23:24;6.18;;;3.25;;
21999;SDS011;11164;48.818;2.322;2023-02-19T00:25:50;7.28;;;3.38;;
21999;SDS011;11164;48.818;2.322;2023-02-19T00:28:16;7.35;;;3.25;;
21999;SDS011;11164;48.818;2.322;2023-02-19T00:30:42;7.38;;;3.60;;
21999;SDS011;11164;48.818;2.322;2023-02-19T00:33:07;6.82;;;3.70;;
21999;SDS011;11164;48.818;2.322;2023-02-19T00:35:33;7.68;;;3.50;;
21999;SDS011;11164;48.818;2.322;2023-02-19T00:37:59;7.03;;;3.50;;
21999;SDS011;11164;48.818;2.322;2023-02-19T00:40:24;6.50;;;3.53;;
21999;SDS011;11164;48.818;2.322;2023-02-19T00:42:50;7.20;;;3.92;;
21999;SDS011;11164;48.818;2.322;2023-02-19T00:45:16;5.65;;;3.03;;
21999;SDS011;11164;48.818;2.322;2023-02-19T00:47:41;6.25;;;3.70;;
21999;SDS011;11164;48.818;2.322;2023-02-19T00:50:07;6.13;;;3.28;;
21999;SDS011;11164;48.818;2.322;2023-02-19T00:52:32;7.50;;;3.33;;
21999;SDS011;11164;48.818;2.322;2023-02-19T00:54:58;7.85;;;3.50;;
21999;SDS011;11164;48.818;2.322;2023-02-19T00:57:23;7.82;;;3.80;;
21999;SDS011;11164;48.818;2.322;2023-02-19T00:59:48;8.20;;;3.25;;
21999;SDS011;11164;48.818;2.322;2023-02-19T01:02:14;5.68;;;3.60;;
21999;SDS011;11164;48.818;2.322;2023-02-19T01:04:39;8.18;;;3.53;;
21999;SDS011;11164;48.818;2.322;2023-02-19T01:07:04;7.85;;;4.07;;
21999;SDS011;11164;48.818;2.322;2023-02-19T01:09:30;8.73;;;3.80;;
21999;SDS011;11164;48.818;2.322;2023-02-19T01:11:55;6.38;;;3.67;;
21999;SDS011;11164;48.818;2.322;2023-02-19T01:14:20;7.50;;;3.55;;
21999;SDS011;11164;48.818;2.322;2023-02-19T01:16:46;6.63;;;3.70;;
21999;SDS011;11164;48.818;2.322;2023-02-19T01:19:11;7.70;;;3.58;;
21999;SDS011;11164;48.818;2.322;2023-02-19T01:21:38;9.90;;;3.70;;
21999;SDS011;11164;48.818;2.322;2023-02-19T01:24:04;9.25;;;4.00;;
21999;SDS011;11164;48.818;2.322;2023-02-19T01:26:30;6.95;;;3.28;;
21999;SDS011;11164;48.818;2.322;2023-02-19T01:28:59;6.95;;;3.50;;
21999;SDS011;11164;48.818;2.322;2023-02-19T01:31:25;7.30;;;3.75;;
21999;SDS011;11164;48.818;2.322;2023-02-19T01:33:53;7.65;;;3.70;;
21999;SDS011;11164;48.818;2.322;2023-02-19T01:36:22;7.95;;;3.47;;
21999;SDS011;11164;48.818;2.322;2023-02-19T01:38:48;5.88;;;3.53;;
21999;SDS011;11164;48.818;2.322;2023-02-19T01:41:15;6.35;;;3.65;;
21999;SDS011;11164;48.818;2.322;2023-02-19T01:46:38;8.35;;;3.70;;
21999;SDS011;11164;48.818;2.322;2023-02-19T01:49:14;6.97;;;3.90;;
21999;SDS011;11164;48.818;2.322;2023-02-19T01:51:48;7.32;;;3.75;;
21999;SDS011;11164;48.818;2.322;2023-02-19T01:54:20;9.50;;;3.50;;
21999;SDS011;11164;48.818;2.322;2023-02-19T01:56:49;6.07;;;3.78;;
21999;SDS011;11164;48.818;2.322;2023-02-19T01:59:15;6.25;;;3.63;;
21999;SDS011;11164;48.818;2.322;2023-02-19T02:01:41;6.07;;;3.58;;
21999;SDS011;11164;48.818;2.322;2023-02-19T02:04:07;7.82;;;3.60;;
21999;SDS011;11164;48.818;2.322;2023-02-19T02:06:45;5.80;;;3.40;;
21999;SDS011;11164;48.818;2.322;2023-02-19T02:09:20;7.82;;;4.38;;
21999;SDS011;11164;48.818;2.322;2023-02-19T02:12:06;8.15;;;3.80;;
21999;SDS011;11164;48.818;2.322;2023-02-19T02:14:35;6.95;;;3.45;;
21999;SDS011;11164;48.818;2.322;2023-02-19T02:22:20;6.75;;;2.97;;
21999;SDS011;11164;48.818;2.322;2023-02-19T02:30:25;5.38;;;3.15;;
21999;SDS011;11164;48.818;2.322;2023-02-19T02:32:59;6.60;;;2.90;;
21999;SDS011;11164;48.818;2.322;2023-02-19T02:38:04;7.28;;;2.80;;
21999;SDS011;11164;48.818;2.322;2023-02-19T02:40:34;5.82;;;2.92;;
21999;SDS011;11164;48.818;2.322;2023-02-19T02:43:00;5.32;;;2.83;;
21999;SDS011;11164;48.818;2.322;2023-02-19T02:45:30;5.35;;;3.08;;
21999;SDS011;11164;48.818;2.322;2023-02-19T02:48:46;4.43;;;2.47;;
21999;SDS011;11164;48.818;2.322;2023-02-19T02:53:38;5.53;;;1.90;;
21999;SDS011;11164;48.818;2.322;2023-02-19T02:56:28;8.02;;;2.17;;
21999;SDS011;11164;48.818;2.322;2023-02-19T02:58:55;7.45;;;2.00;;
21999;SDS011;11164;48.818;2.322;2023-02-19T03:01:23;8.48;;;2.67;;
21999;SDS011;11164;48.818;2.322;2023-02-19T03:04:12;4.30;;;1.42;;
21999;SDS011;11164;48.818;2.322;2023-02-19T03:06:45;5.40;;;1.65;;
21999;SDS011;11164;48.818;2.322;2023-02-19T03:09:15;5.72;;;1.80;;
21999;SDS011;11164;48.818;2.322;2023-02-19T03:11:54;5.35;;;1.63;;
21999;SDS011;11164;48.818;2.322;2023-02-19T03:14:45;4.55;;;1.58;;
21999;SDS011;11164;48.818;2.322;2023-02-19T03:20:18;4.72;;;1.70;;
21999;SDS011;11164;48.818;2.322;2023-02-19T03:22:46;5.13;;;2.08;;
21999;SDS011;11164;48.818;2.322;2023-02-19T03:25:30;5.10;;;2.10;;
21999;SDS011;11164;48.818;2.322;2023-02-19T03:28:18;4.68;;;1.92;;
21999;SDS011;11164;48.818;2.322;2023-02-19T03:31:06;7.28;;;2.00;;
21999;SDS011;11164;48.818;2.322;2023-02-19T03:33:34;4.32;;;1.23;;
21999;SDS011;11164;48.818;2.322;2023-02-19T03:36:01;6.78;;;1.80;;
21999;SDS011;11164;48.818;2.322;2023-02-19T03:38:38;5.50;;;1.83;;
21999;SDS011;11164;48.818;2.322;2023-02-19T03:41:28;4.60;;;1.65;;
21999;SDS011;11164;48.818;2.322;2023-02-19T03:46:34;4.00;;;1.55;;
21999;SDS011;11164;48.818;2.322;2023-02-19T03:52:15;4.43;;;1.50;;
21999;SDS011;11164;48.818;2.322;2023-02-19T04:00:22;5.25;;;1.55;;
21999;SDS011;11164;48.818;2.322;2023-02-19T04:03:01;4.82;;;1.15;;
21999;SDS011;11164;48.818;2.322;2023-02-19T04:05:36;5.50;;;1.52;;
21999;SDS011;11164;48.818;2.322;2023-02-19T04:08:08;5.90;;;1.20;;
21999;SDS011;11164;48.818;2.322;2023-02-19T04:10:38;6.07;;;1.17;;
21999;SDS011;11164;48.818;2.322;2023-02-19T04:13:06;5.65;;;1.70;;
21999;SDS011;11164;48.818;2.322;2023-02-19T04:15:37;4.68;;;1.10;;
21999;SDS011;11164;48.818;2.322;2023-02-19T04:18:06;5.18;;;1.23;;
21999;SDS011;11164;48.818;2.322;2023-02-19T04:20:43;5.90;;;1.30;;
21999;SDS011;11164;48.818;2.322;2023-02-19T04:23:11;5.05;;;1.10;;
21999;SDS011;11164;48.818;2.322;2023-02-19T04:25:39;4.97;;;1.15;;
21999;SDS011;11164;48.818;2.322;2023-02-19T04:28:08;6.78;;;1.23;;
21999;SDS011;11164;48.818;2.322;2023-02-19T04:30:34;5.32;;;1.10;;
21999;SDS011;11164;48.818;2.322;2023-02-19T04:32:59;6.20;;;1.23;;
21999;SDS011;11164;48.818;2.322;2023-02-19T04:35:24;3.67;;;1.23;;
21999;SDS011;11164;48.818;2.322;2023-02-19T04:37:50;6.63;;;1.38;;
21999;SDS011;11164;48.818;2.322;2023-02-19T04:40:15;5.63;;;1.10;;
21999;SDS011;11164;48.818;2.322;2023-02-19T04:42:41;4.93;;;0.85;;
21999;SDS011;11164;48.818;2.322;2023-02-19T04:45:06;5.72;;;0.82;;
21999;SDS011;11164;48.818;2.322;2023-02-19T04:47:32;4.50;;;1.27;;
21999;SDS011;11164;48.818;2.322;2023-02-19T04:49:57;5.00;;;1.33;;
21999;SDS011;11164;48.818;2.322;2023-02-19T04:52:22;7.75;;;1.20;;
21999;SDS011;11164;48.818;2.322;2023-02-19T04:54:48;8.25;;;1.10;;
21999;SDS011;11164;48.818;2.322;2023-02-19T04:57:13;6.95;;;1.38;;
21999;SDS011;11164;48.818;2.322;2023-02-19T04:59:38;5.75;;;1.30;;
21999;SDS011;11164;48.818;2.322;2023-02-19T05:02:04;5.90;;;0.90;;
21999;SDS011;11164;48.818;2.322;2023-02-19T05:04:29;8.13;;;1.67;;
21999;SDS011;11164;48.818;2.322;2023-02-19T05:06:55;6.20;;;1.50;;
21999;SDS011;11164;48.818;2.322;2023-02-19T05:09:20;7.00;;;1.00;;
21999;SDS011;11164;48.818;2.322;2023-02-19T05:11:46;6.30;;;1.15;;
21999;SDS011;11164;48.818;2.322;2023-02-19T05:14:11;9.55;;;1.63;;
21999;SDS011;11164;48.818;2.322;2023-02-19T05:16:36;6.38;;;0.90;;
21999;SDS011;11164;48.818;2.322;2023-02-19T05:19:02;5.03;;;1.02;;
21999;SDS011;11164;48.818;2.322;2023-02-19T05:21:27;6.35;;;1.08;;
21999;SDS011;11164;48.818;2.322;2023-02-19T05:23:52;5.18;;;1.17;;
21999;SDS011;11164;48.818;2.322;2023-02-19T05:26:20;4.88;;;1.15;;
21999;SDS011;11164;48.818;2.322;2023-02-19T05:28:47;6.22;;;1.20;;
21999;SDS011;11164;48.818;2.322;2023-02-19T05:31:17;6.75;;;1.10;;
21999;SDS011;11164;48.818;2.322;2023-02-19T05:33:43;8.07;;;1.30;;
21999;SDS011;11164;48.818;2.322;2023-02-19T05:36:10;6.82;;;1.20;;
21999;SDS011;11164;48.818;2.322;2023-02-19T05:38:37;8.48;;;1.25;;
21999;SDS011;11164;48.818;2.322;2023-02-19T05:41:14;3.40;;;0.85;;
21999;SDS011;11164;48.818;2.322;2023-02-19T05:43:41;8.48;;;1.25;;
21999;SDS011;11164;48.818;2.322;2023-02-19T05:46:09;6.18;;;1.13;;
21999;SDS011;11164;48.818;2.322;2023-02-19T05:48:35;7.82;;;1.10;;
21999;SDS011;11164;48.818;2.322;2023-02-19T05:51:05;5.47;;;0.95;;
21999;SDS011;11164;48.818;2.322;2023-02-19T05:53:34;6.85;;;1.00;;
21999;SDS011;11164;48.818;2.322;2023-02-19T05:56:00;7.15;;;1.05;;
21999;SDS011;11164;48.818;2.322;2023-02-19T05:58:26;3.85;;;0.93;;
21999;SDS011;11164;48.818;2.322;2023-02-19T06:00:52;3.40;;;0.98;;
21999;SDS011;11164;48.818;2.322;2023-02-19T06:03:18;5.57;;;1.10;;
21999;SDS011;11164;48.818;2.322;2023-02-19T06:05:44;6.72;;;1.45;;
21999;SDS011;11164;48.818;2.322;2023-02-19T06:08:12;5.97;;;1.20;;
21999;SDS011;11164;48.818;2.322;2023-02-19T06:10:38;6.15;;;1.40;;
21999;SDS011;11164;48.818;2.322;2023-02-19T06:13:05;5.07;;;1.45;;
21999;SDS011;11164;48.818;2.322;2023-02-19T06:15:32;5.47;;;1.40;;
21999;SDS011;11164;48.818;2.322;2023-02-19T06:17:57;6.07;;;1.55;;
21999;SDS011;11164;48.818;2.322;2023-02-19T06:20:23;6.03;;;1.40;;
21999;SDS011;11164;48.818;2.322;2023-02-19T06:22:48;5.43;;;1.98;;
21999;SDS011;11164;48.818;2.322;2023-02-19T06:25:15;7.38;;;1.92;;
21999;SDS011;11164;48.818;2.322;2023-02-19T06:27:40;7.55;;;1.90;;
21999;SDS011;11164;48.818;2.322;2023-02-19T06:30:05;9.38;;;1.75;;
21999;SDS011;11164;48.818;2.322;2023-02-19T06:32:31;6.47;;;1.83;;
21999;SDS011;11164;48.818;2.322;2023-02-19T06:34:57;7.63;;;2.13;;
21999;SDS011;11164;48.818;2.322;2023-02-19T06:37:22;6.25;;;1.80;;
21999;SDS011;11164;48.818;2.322;2023-02-19T06:39:48;5.18;;;1.90;;
21999;SDS011;11164;48.818;2.322;2023-02-19T06:42:14;5.68;;;1.52;;
21999;SDS011;11164;48.818;2.322;2023-02-19T06:44:40;5.55;;;1.67;;
21999;SDS011;11164;48.818;2.322;2023-02-19T06:47:05;6.22;;;1.80;;
21999;SDS011;11164;48.818;2.322;2023-02-19T06:49:31;8.13;;;1.90;;
21999;SDS011;11164;48.818;2.322;2023-02-19T06:51:56;5.93;;;1.80;;
21999;SDS011;11164;48.818;2.322;2023-02-19T06:54:23;6.97;;;2.10;;
21999;SDS011;11164;48.818;2.322;2023-02-19T06:56:49;10.65;;;2.22;;
21999;SDS011;11164;48.818;2.322;2023-02-19T06:59:15;10.50;;;2.45;;
21999;SDS011;11164;48.818;2.322;2023-02-19T07:01:43;7.07;;;1.95;;
21999;SDS011;11164;48.818;2.322;2023-02-19T07:04:09;12.25;;;2.33;;
21999;SDS011;11164;48.818;2.322;2023-02-19T07:06:35;4.82;;;2.00;;
21999;SDS011;11164;48.818;2.322;2023-02-19T07:09:02;7.40;;;2.10;;
21999;SDS011;11164;48.818;2.322;2023-02-19T07:11:29;6.60;;;1.92;;
21999;SDS011;11164;48.818;2.322;2023-02-19T07:13:58;8.70;;;2.38;;
21999;SDS011;11164;48.818;2.322;2023-02-19T07:16:25;5.45;;;2.03;;
21999;SDS011;11164;48.818;2.322;2023-02-19T07:18:51;7.15;;;2.30;;
21999;SDS011;11164;48.818;2.322;2023-02-19T07:21:17;4.75;;;1.95;;
21999;SDS011;11164;48.818;2.322;2023-02-19T07:23:43;7.05;;;2.22;;
21999;SDS011;11164;48.818;2.322;2023-02-19T07:26:12;6.82;;;2.20;;
21999;SDS011;11164;48.818;2.322;2023-02-19T07:28:40;10.73;;;2.17;;
21999;SDS011;11164;48.818;2.322;2023-02-19T07:31:06;6.22;;;1.90;;
21999;SDS011;11164;48.818;2.322;2023-02-19T07:33:31;7.07;;;1.90;;
21999;SDS011;11164;48.818;2.322;2023-02-19T07:35:57;7.03;;;1.90;;
21999;SDS011;11164;48.818;2.322;2023-02-19T07:38:23;6.80;;;1.95;;
21999;SDS011;11164;48.818;2.322;2023-02-19T07:40:53;9.48;;;2.38;;
21999;SDS011;11164;48.818;2.322;2023-02-19T07:43:24;6.65;;;2.10;;
21999;SDS011;11164;48.818;2.322;2023-02-19T07:45:51;9.82;;;1.90;;
21999;SDS011;11164;48.818;2.322;2023-02-19T07:48:16;7.88;;;2.03;;
21999;SDS011;11164;48.818;2.322;2023-02-19T07:50:52;7.20;;;2.03;;
21999;SDS011;11164;48.818;2.322;2023-02-19T07:53:19;7.38;;;2.20;;
21999;SDS011;11164;48.818;2.322;2023-02-19T07:55:44;7.38;;;2.53;;
21999;SDS011;11164;48.818;2.322;2023-02-19T07:58:09;8.55;;;2.55;;
21999;SDS011;11164;48.818;2.322;2023-02-19T08:00:35;6.30;;;2.65;;
21999;SDS011;11164;48.818;2.322;2023-02-19T08:03:00;6.95;;;2.40;;
21999;SDS011;11164;48.818;2.322;2023-02-19T08:05:26;7.50;;;2.60;;
21999;SDS011;11164;48.818;2.322;2023-02-19T08:07:52;7.85;;;3.10;;
21999;SDS011;11164;48.818;2.322;2023-02-19T08:10:18;11.13;;;3.10;;
21999;SDS011;11164;48.818;2.322;2023-02-19T08:13:02;6.10;;;2.50;;
21999;SDS011;11164;48.818;2.322;2023-02-19T08:15:43;7.07;;;2.80;;
21999;SDS011;11164;48.818;2.322;2023-02-19T08:18:15;8.20;;;2.90;;
21999;SDS011;11164;48.818;2.322;2023-02-19T08:20:41;8.60;;;2.65;;
21999;SDS011;11164;48.818;2.322;2023-02-19T08:23:07;9.38;;;3.00;;
21999;SDS011;11164;48.818;2.322;2023-02-19T08:25:33;6.50;;;2.80;;
21999;SDS011;11164;48.818;2.322;2023-02-19T08:27:59;9.88;;;3.10;;
21999;SDS011;11164;48.818;2.322;2023-02-19T08:30:26;6.18;;;2.53;;
21999;SDS011;11164;48.818;2.322;2023-02-19T08:32:52;7.95;;;2.50;;
21999;SDS011;11164;48.818;2.322;2023-02-19T08:35:18;10.00;;;2.50;;
21999;SDS011;11164;48.818;2.322;2023-02-19T08:37:43;9.00;;;2.35;;
21999;SDS011;11164;48.818;2.322;2023-02-19T08:40:09;7.18;;;2.50;;
21999;SDS011;11164;48.818;2.322;2023-02-19T08:42:35;15.80;;;2.58;;
21999;SDS011;11164;48.818;2.322;2023-02-19T08:45:01;8.85;;;2.38;;
21999;SDS011;11164;48.818;2.322;2023-02-19T08:47:26;8.07;;;2.38;;
21999;SDS011;11164;48.818;2.322;2023-02-19T08:49:52;10.93;;;1.70;;
21999;SDS011;11164;48.818;2.322;2023-02-19T08:52:17;6.40;;;1.77;;
21999;SDS011;11164;48.818;2.322;2023-02-19T08:54:42;7.25;;;1.80;;
21999;SDS011;11164;48.818;2.322;2023-02-19T08:57:08;9.70;;;1.60;;
21999;SDS011;11164;48.818;2.322;2023-02-19T08:59:33;6.63;;;1.67;;
21999;SDS011;11164;48.818;2.322;2023-02-19T09:01:59;6.60;;;1.80;;
21999;SDS011;11164;48.818;2.322;2023-02-19T09:04:25;7.35;;;1.70;;
21999;SDS011;11164;48.818;2.322;2023-02-19T09:06:50;7.10;;;1.52;;
21999;SDS011;11164;48.818;2.322;2023-02-19T09:09:16;9.02;;;1.65;;
21999;SDS011;11164;48.818;2.322;2023-02-19T09:11:41;6.80;;;1.35;;
21999;SDS011;11164;48.818;2.322;2023-02-19T09:14:07;8.57;;;1.40;;
21999;SDS011;11164;48.818;2.322;2023-02-19T09:16:33;5.60;;;1.95;;
21999;SDS011;11164;48.818;2.322;2023-02-19T09:18:59;5.35;;;1.75;;
21999;SDS011;11164;48.818;2.322;2023-02-19T09:21:24;7.13;;;1.55;;
21999;SDS011;11164;48.818;2.322;2023-02-19T09:23:50;8.10;;;1.70;;
21999;SDS011;11164;48.818;2.322;2023-02-19T09:26:15;7.40;;;1.65;;
21999;SDS011;11164;48.818;2.322;2023-02-19T09:28:41;8.05;;;1.77;;
21999;SDS011;11164;48.818;2.322;2023-02-19T09:31:07;10.00;;;2.20;;
21999;SDS011;11164;48.818;2.322;2023-02-19T09:33:35;11.30;;;2.40;;
21999;SDS011;11164;48.818;2.322;2023-02-19T09:36:01;7.80;;;2.10;;
21999;SDS011;11164;48.818;2.322;2023-02-19T09:38:27;8.45;;;2.30;;
21999;SDS011;11164;48.818;2.322;2023-02-19T09:40:55;7.60;;;2.03;;
21999;SDS011;11164;48.818;2.322;2023-02-19T09:43:21;9.60;;;2.50;;
21999;SDS011;11164;48.818;2.322;2023-02-19T09:45:48;9.70;;;2.08;;
21999;SDS011;11164;48.818;2.322;2023-02-19T09:48:21;7.37;;;2.30;;
21999;SDS011;11164;48.818;2.322;2023-02-19T09:50:47;8.68;;;2.40;;
21999;SDS011;11164;48.818;2.322;2023-02-19T09:53:18;7.60;;;2.33;;
21999;SDS011;11164;48.818;2.322;2023-02-19T09:55:47;6.85;;;1.90;;
21999;SDS011;11164;48.818;2.322;2023-02-19T09:58:16;6.70;;;2.10;;
21999;SDS011;11164;48.818;2.322;2023-02-19T10:00:48;9.32;;;2.30;;
21999;SDS011;11164;48.818;2.322;2023-02-19T10:03:22;9.15;;;2.72;;
21999;SDS011;11164;48.818;2.322;2023-02-19T10:06:07;4.90;;;1.98;;
21999;SDS011;11164;48.818;2.322;2023-02-19T10:08:37;9.30;;;2.75;;
21999;SDS011;11164;48.818;2.322;2023-02-19T10:11:04;8.13;;;2.00;;
21999;SDS011;11164;48.818;2.322;2023-02-19T10:13:32;5.78;;;1.67;;
21999;SDS011;11164;48.818;2.322;2023-02-19T10:16:01;9.45;;;2.10;;
21999;SDS011;11164;48.818;2.322;2023-02-19T10:18:39;8.30;;;2.20;;
21999;SDS011;11164;48.818;2.322;2023-02-19T10:21:08;6.95;;;1.70;;
21999;SDS011;11164;48.818;2.322;2023-02-19T10:23:36;7.18;;;2.10;;
21999;SDS011;11164;48.818;2.322;2023-02-19T10:26:05;8.85;;;2.42;;
21999;SDS011;11164;48.818;2.322;2023-02-19T10:28:32;6.25;;;1.80;;
21999;SDS011;11164;48.818;2.322;2023-02-19T10:31:04;8.52;;;2.45;;
21999;SDS011;11164;48.818;2.322;2023-02-19T10:33:43;12.07;;;2.22;;
21999;SDS011;11164;48.818;2.322;2023-02-19T10:36:46;17.60;;;3.67;;
21999;SDS011;11164;48.818;2.322;2023-02-19T10:39:51;8.88;;;2.13;;
21999;SDS011;11164;48.818;2.322;2023-02-19T10:41:54;8.20;;;1.92;;
21999;SDS011;11164;48.818;2.322;2023-02-19T10:44:20;9.57;;;2.13;;
21999;SDS011;11164;48.818;2.322;2023-02-19T10:46:50;7.28;;;2.42;;
21999;SDS011;11164;48.818;2.322;2023-02-19T10:49:35;10.75;;;2.25;;
21999;SDS011;11164;48.818;2.322;2023-02-19T10:55:15;7.43;;;2.15;;
21999;SDS011;11164;48.818;2.322;2023-02-19T10:57:49;10.98;;;2.60;;
21999;SDS011;11164;48.818;2.322;2023-02-19T11:02:41;9.57;;;2.45;;
21999;SDS011;11164;48.818;2.322;2023-02-19T11:07:37;9.85;;;2.35;;
21999;SDS011;11164;48.818;2.322;2023-02-19T11:10:17;9.23;;;2.72;;
21999;SDS011;11164;48.818;2.322;2023-02-19T11:13:04;7.45;;;2.22;;
21999;SDS011;11164;48.818;2.322;2023-02-19T11:15:37;9.45;;;2.30;;
21999;SDS011;11164;48.818;2.322;2023-02-19T11:20:38;11.07;;;2.60;;
21999;SDS011;11164;48.818;2.322;2023-02-19T11:23:13;8.20;;;2.42;;
21999;SDS011;11164;48.818;2.322;2023-02-19T11:25:45;8.20;;;2.35;;
21999;SDS011;11164;48.818;2.322;2023-02-19T11:30:42;8.05;;;2.13;;
21999;SDS011;11164;48.818;2.322;2023-02-19T11:35:40;7.50;;;2.80;;
21999;SDS011;11164;48.818;2.322;2023-02-19T11:38:10;8.50;;;3.08;;
21999;SDS011;11164;48.818;2.322;2023-02-19T11:40:51;10.82;;;2.65;;
21999;SDS011;11164;48.818;2.322;2023-02-19T11:48:35;10.02;;;3.53;;
21999;SDS011;11164;48.818;2.322;2023-02-19T11:51:37;8.77;;;2.78;;
21999;SDS011;11164;48.818;2.322;2023-02-19T11:54:17;8.50;;;2.95;;
21999;SDS011;11164;48.818;2.322;2023-02-19T11:56:47;10.27;;;3.08;;
21999;SDS011;11164;48.818;2.322;2023-02-19T12:00:11;12.40;;;2.83;;
21999;SDS011;11164;48.818;2.322;2023-02-19T12:02:25;10.27;;;3.22;;
21999;SDS011;11164;48.818;2.322;2023-02-19T12:11:02;9.18;;;3.40;;
21999;SDS011;11164;48.818;2.322;2023-02-19T12:13:44;12.55;;;4.05;;
21999;SDS011;11164;48.818;2.322;2023-02-19T12:19:15;10.55;;;3.58;;
21999;SDS011;11164;48.818;2.322;2023-02-19T12:41:14;13.82;;;4.47;;
21999;SDS011;11164;48.818;2.322;2023-02-19T12:43:46;10.35;;;4.40;;
21999;SDS011;11164;48.818;2.322;2023-02-19T12:46:18;10.25;;;4.15;;
21999;SDS011;11164;48.818;2.322;2023-02-19T12:48:56;9.73;;;4.20;;
21999;SDS011;11164;48.818;2.322;2023-02-19T12:54:00;15.63;;;4.45;;
21999;SDS011;11164;48.818;2.322;2023-02-19T12:56:35;10.30;;;5.03;;
21999;SDS011;11164;48.818;2.322;2023-02-19T12:59:09;10.30;;;4.22;;
21999;SDS011;11164;48.818;2.322;2023-02-19T13:01:42;13.63;;;4.25;;
21999;SDS011;11164;48.818;2.322;2023-02-19T13:05:17;10.15;;;4.00;;
21999;SDS011;11164;48.818;2.322;2023-02-19T13:12:59;11.07;;;3.88;;
21999;SDS011;11164;48.818;2.322;2023-02-19T13:15:32;6.03;;;2.55;;
21999;SDS011;11164;48.818;2.322;2023-02-19T13:18:01;7.75;;;2.92;;
21999;SDS011;11164;48.818;2.322;2023-02-19T13:20:33;11.80;;;3.53;;
21999;SDS011;11164;48.818;2.322;2023-02-19T13:37:40;7.53;;;2.72;;
21999;SDS011;11164;48.818;2.322;2023-02-19T13:40:16;5.65;;;2.80;;
21999;SDS011;11164;48.818;2.322;2023-02-19T13:42:53;8.85;;;3.00;;
21999;SDS011;11164;48.818;2.322;2023-02-19T13:45:22;9.13;;;3.13;;
21999;SDS011;11164;48.818;2.322;2023-02-19T14:04:17;11.50;;;4.00;;
21999;SDS011;11164;48.818;2.322;2023-02-19T14:22:47;10.82;;;5.45;;
21999;SDS011;11164;48.818;2.322;2023-02-19T14:27:50;12.40;;;5.90;;
21999;SDS011;11164;48.818;2.322;2023-02-19T14:30:17;9.38;;;5.43;;
21999;SDS011;11164;48.818;2.322;2023-02-19T14:32:43;11.75;;;5.35;;
21999;SDS011;11164;48.818;2.322;2023-02-19T14:35:18;13.60;;;5.30;;
21999;SDS011;11164;48.818;2.322;2023-02-19T14:37:45;14.55;;;5.35;;
21999;SDS011;11164;48.818;2.322;2023-02-19T14:40:16;11.52;;;5.80;;
21999;SDS011;11164;48.818;2.322;2023-02-19T14:42:46;12.43;;;5.60;;
21999;SDS011;11164;48.818;2.322;2023-02-19T14:45:12;11.18;;;4.50;;
21999;SDS011;11164;48.818;2.322;2023-02-19T14:47:41;13.13;;;5.25;;
21999;SDS011;11164;48.818;2.322;2023-02-19T14:50:12;9.93;;;4.72;;
21999;SDS011;11164;48.818;2.322;2023-02-19T14:52:48;11.13;;;4.38;;
21999;SDS011;11164;48.818;2.322;2023-02-19T14:57:55;12.35;;;4.80;;
21999;SDS011;11164;48.818;2.322;2023-02-19T15:02:52;10.07;;;4.75;;
21999;SDS011;11164;48.818;2.322;2023-02-19T15:05:24;9.10;;;4.45;;
21999;SDS011;11164;48.818;2.322;2023-02-19T15:07:52;11.73;;;4.90;;
21999;SDS011;11164;48.818;2.322;2023-02-19T15:10:21;9.65;;;4.97;;
21999;SDS011;11164;48.818;2.322;2023-02-19T15:12:51;13.55;;;5.00;;
21999;SDS011;11164;48.818;2.322;2023-02-19T15:15:23;11.35;;;5.03;;
21999;SDS011;11164;48.818;2.322;2023-02-19T15:17:51;12.05;;;5.50;;
21999;SDS011;11164;48.818;2.322;2023-02-19T15:20:18;10.40;;;4.47;;
21999;SDS011;11164;48.818;2.322;2023-02-19T15:22:48;11.00;;;5.13;;
21999;SDS011;11164;48.818;2.322;2023-02-19T15:25:20;9.80;;;4.60;;
21999;SDS011;11164;48.818;2.322;2023-02-19T15:27:48;9.55;;;4.85;;
21999;SDS011;11164;48.818;2.322;2023-02-19T15:30:21;12.73;;;4.88;;
21999;SDS011;11164;48.818;2.322;2023-02-19T15:32:53;10.77;;;5.32;;
21999;SDS011;11164;48.818;2.322;2023-02-19T15:35:20;10.70;;;5.07;;
21999;SDS011;11164;48.818;2.322;2023-02-19T15:37:48;9.98;;;4.68;;
21999;SDS011;11164;48.818;2.322;2023-02-19T15:40:15;9.02;;;4.95;;
21999;SDS011;11164;48.818;2.322;2023-02-19T15:42:42;12.20;;;5.47;;
21999;SDS011;11164;48.818;2.322;2023-02-19T15:45:17;13.38;;;6.70;;
21999;SDS011;11164;48.818;2.322;2023-02-19T15:50:32;11.45;;;5.65;;
21999;SDS011;11164;48.818;2.322;2023-02-19T15:55:38;13.85;;;5.20;;
21999;SDS011;11164;48.818;2.322;2023-02-19T16:01:20;10.45;;;5.53;;
21999;SDS011;11164;48.818;2.322;2023-02-19T16:03:49;11.32;;;5.80;;
21999;SDS011;11164;48.818;2.322;2023-02-19T16:06:18;10.30;;;5.22;;
21999;SDS011;11164;48.818;2.322;2023-02-19T16:09:05;10.15;;;4.90;;
21999;SDS011;11164;48.818;2.322;2023-02-19T16:12:16;10.07;;;5.00;;
21999;SDS011;11164;48.818;2.322;2023-02-19T16:16:59;12.75;;;5.30;;
21999;SDS011;11164;48.818;2.322;2023-02-19T16:22:11;13.20;;;5.45;;
21999;SDS011;11164;48.818;2.322;2023-02-19T16:24:41;14.95;;;6.25;;
21999;SDS011;11164;48.818;2.322;2023-02-19T16:27:10;11.38;;;5.68;;
21999;SDS011;11164;48.818;2.322;2023-02-19T16:29:51;13.43;;;5.50;;
21999;SDS011;11164;48.818;2.322;2023-02-19T16:32:17;14.85;;;6.03;;
21999;SDS011;11164;48.818;2.322;2023-02-19T16:34:43;11.75;;;6.18;;
21999;SDS011;11164;48.818;2.322;2023-02-19T16:42:31;11.75;;;5.65;;
21999;SDS011;11164;48.818;2.322;2023-02-19T16:44:57;10.65;;;5.63;;
21999;SDS011;11164;48.818;2.322;2023-02-19T16:47:25;18.73;;;6.35;;
21999;SDS011;11164;48.818;2.322;2023-02-19T16:49:53;16.65;;;6.55;;
21999;SDS011;11164;48.818;2.322;2023-02-19T16:52:20;11.68;;;5.88;;
21999;SDS011;11164;48.818;2.322;2023-02-19T16:54:47;12.88;;;5.95;;
21999;SDS011;11164;48.818;2.322;2023-02-19T16:57:13;14.00;;;6.60;;
21999;SDS011;11164;48.818;2.322;2023-02-19T16:59:38;14.55;;;6.75;;
21999;SDS011;11164;48.818;2.322;2023-02-19T17:02:04;16.67;;;7.00;;
21999;SDS011;11164;48.818;2.322;2023-02-19T17:04:33;15.65;;;7.00;;
21999;SDS011;11164;48.818;2.322;2023-02-19T17:06:58;20.88;;;7.22;;
21999;SDS011;11164;48.818;2.322;2023-02-19T17:09:25;11.73;;;6.40;;
21999;SDS011;11164;48.818;2.322;2023-02-19T17:11:51;14.07;;;6.47;;
21999;SDS011;11164;48.818;2.322;2023-02-19T17:14:16;17.90;;;6.60;;
21999;SDS011;11164;48.818;2.322;2023-02-19T17:16:42;17.77;;;7.07;;
21999;SDS011;11164;48.818;2.322;2023-02-19T17:21:40;17.15;;;7.00;;
21999;SDS011;11164;48.818;2.322;2023-02-19T17:24:05;14.73;;;6.68;;
21999;SDS011;11164;48.818;2.322;2023-02-19T17:26:31;12.40;;;6.47;;
21999;SDS011;11164;48.818;2.322;2023-02-19T17:28:57;16.23;;;6.63;;
21999;SDS011;11164;48.818;2.322;2023-02-19T17:31:24;17.02;;;7.47;;
21999;SDS011;11164;48.818;2.322;2023-02-19T17:33:49;15.63;;;7.25;;
21999;SDS011;11164;48.818;2.322;2023-02-19T17:36:17;12.95;;;6.45;;
21999;SDS011;11164;48.818;2.322;2023-02-19T17:38:54;15.85;;;6.75;;
21999;SDS011;11164;48.818;2.322;2023-02-19T17:41:20;15.50;;;6.50;;
21999;SDS011;11164;48.818;2.322;2023-02-19T17:43:46;15.90;;;6.68;;